sensor_id;sensor_type;location;lat;lon;timestamp;P1;durP1;ratioP1;P2;durP2;ratioP2
53925;SDS011;39836;52.754;6.866;2022-09-09T00:04:27;22.33;;;10.50;;
53925;SDS011;39836;52.754;6.866;2022-09-09T00:09:19;15.38;;;9.63;;
53925;SDS011;39836;52.754;6.866;2022-09-09T00:12:11;16.10;;;10.02;;
53925;SDS011;39836;52.754;6.866;2022-09-09T00:14:45;12.88;;;9.13;;
53925;SDS011;39836;52.754;6.866;2022-09-09T00:20:37;16.50;;;9.52;;
53925;SDS011;39836;52.754;6.866;2022-09-09T00:23:28;17.85;;;10.10;;
53925;SDS011;39836;52.754;6.866;2022-09-09T00:26:13;19.48;;;10.95;;
53925;SDS011;39836;52.754;6.866;2022-09-09T00:31:25;17.75;;;9.02;;
53925;SDS011;39836;52.754;6.866;2022-09-09T00:33:53;19.10;;;10.10;;
53925;SDS011;39836;52.754;6.866;2022-09-09T00:36:24;27.73;;;10.32;;
53925;SDS011;39836;52.754;6.866;2022-09-09T00:38:56;25.00;;;10.80;;
53925;SDS011;39836;52.754;6.866;2022-09-09T00:41:49;19.85;;;10.02;;
53925;SDS011;39836;52.754;6.866;2022-09-09T00:44:31;18.55;;;10.55;;
53925;SDS011;39836;52.754;6.866;2022-09-09T00:49:59;20.05;;;9.98;;
53925;SDS011;39836;52.754;6.866;2022-09-09T00:52:32;23.42;;;9.52;;
53925;SDS011;39836;52.754;6.866;2022-09-09T00:55:21;19.40;;;9.73;;
53925;SDS011;39836;52.754;6.866;2022-09-09T00:57:57;18.83;;;9.45;;
53925;SDS011;39836;52.754;6.866;2022-09-09T01:00:25;17.70;;;8.98;;
53925;SDS011;39836;52.754;6.866;2022-09-09T01:03:00;12.80;;;9.65;;
53925;SDS011;39836;52.754;6.866;2022-09-09T01:08:05;17.77;;;10.48;;
53925;SDS011;39836;52.754;6.866;2022-09-09T01:10:43;19.70;;;9.45;;
53925;SDS011;39836;52.754;6.866;2022-09-09T01:13:25;15.82;;;8.15;;
53925;SDS011;39836;52.754;6.866;2022-09-09T01:15:59;12.70;;;7.88;;
53925;SDS011;39836;52.754;6.866;2022-09-09T01:18:29;18.33;;;9.38;;
53925;SDS011;39836;52.754;6.866;2022-09-09T01:26:52;18.70;;;10.07;;
53925;SDS011;39836;52.754;6.866;2022-09-09T01:29:23;18.95;;;10.75;;
53925;SDS011;39836;52.754;6.866;2022-09-09T01:32:00;17.52;;;10.50;;
53925;SDS011;39836;52.754;6.866;2022-09-09T01:34:44;20.25;;;10.25;;
53925;SDS011;39836;52.754;6.866;2022-09-09T01:37:11;16.65;;;10.70;;
53925;SDS011;39836;52.754;6.866;2022-09-09T01:39:39;16.55;;;10.98;;
53925;SDS011;39836;52.754;6.866;2022-09-09T01:42:07;14.85;;;10.60;;
53925;SDS011;39836;52.754;6.866;2022-09-09T01:44:36;17.77;;;10.63;;
53925;SDS011;39836;52.754;6.866;2022-09-09T01:47:03;19.65;;;10.93;;
53925;SDS011;39836;52.754;6.866;2022-09-09T01:49:30;21.30;;;12.20;;
53925;SDS011;39836;52.754;6.866;2022-09-09T01:51:57;21.48;;;12.27;;
53925;SDS011;39836;52.754;6.866;2022-09-09T01:54:24;19.27;;;12.45;;
53925;SDS011;39836;52.754;6.866;2022-09-09T01:57:07;22.25;;;12.50;;
53925;SDS011;39836;52.754;6.866;2022-09-09T01:59:49;18.90;;;12.27;;
53925;SDS011;39836;52.754;6.866;2022-09-09T02:02:24;21.05;;;12.40;;
53925;SDS011;39836;52.754;6.866;2022-09-09T02:05:07;17.48;;;10.98;;
53925;SDS011;39836;52.754;6.866;2022-09-09T02:07:50;20.40;;;9.98;;
53925;SDS011;39836;52.754;6.866;2022-09-09T02:10:24;16.75;;;9.85;;
53925;SDS011;39836;52.754;6.866;2022-09-09T02:13:09;16.75;;;9.43;;
53925;SDS011;39836;52.754;6.866;2022-09-09T02:15:42;19.13;;;10.57;;
53925;SDS011;39836;52.754;6.866;2022-09-09T02:18:18;13.55;;;10.68;;
53925;SDS011;39836;52.754;6.866;2022-09-09T02:20:57;18.20;;;10.73;;
53925;SDS011;39836;52.754;6.866;2022-09-09T02:23:24;15.93;;;9.93;;
53925;SDS011;39836;52.754;6.866;2022-09-09T02:25:50;18.73;;;11.32;;
53925;SDS011;39836;52.754;6.866;2022-09-09T02:28:17;18.92;;;10.20;;
53925;SDS011;39836;52.754;6.866;2022-09-09T02:30:47;17.08;;;10.82;;
53925;SDS011;39836;52.754;6.866;2022-09-09T02:33:20;15.68;;;10.77;;
53925;SDS011;39836;52.754;6.866;2022-09-09T02:35:52;19.70;;;11.48;;
53925;SDS011;39836;52.754;6.866;2022-09-09T02:38:18;21.23;;;11.10;;
53925;SDS011;39836;52.754;6.866;2022-09-09T02:40:47;16.80;;;11.82;;
53925;SDS011;39836;52.754;6.866;2022-09-09T02:43:14;16.52;;;11.05;;
53925;SDS011;39836;52.754;6.866;2022-09-09T02:46:17;18.67;;;11.38;;
53925;SDS011;39836;52.754;6.866;2022-09-09T02:49:05;20.17;;;11.93;;
53925;SDS011;39836;52.754;6.866;2022-09-09T02:54:26;19.83;;;11.63;;
53925;SDS011;39836;52.754;6.866;2022-09-09T02:56:59;15.57;;;10.23;;
53925;SDS011;39836;52.754;6.866;2022-09-09T02:59:36;13.85;;;9.30;;
53925;SDS011;39836;52.754;6.866;2022-09-09T03:02:02;13.70;;;9.60;;
53925;SDS011;39836;52.754;6.866;2022-09-09T03:04:28;11.48;;;8.93;;
53925;SDS011;39836;52.754;6.866;2022-09-09T03:06:55;16.88;;;8.18;;
53925;SDS011;39836;52.754;6.866;2022-09-09T03:09:21;14.45;;;7.78;;
53925;SDS011;39836;52.754;6.866;2022-09-09T03:11:46;10.88;;;6.57;;
53925;SDS011;39836;52.754;6.866;2022-09-09T03:14:12;12.90;;;6.53;;
53925;SDS011;39836;52.754;6.866;2022-09-09T03:16:38;10.63;;;6.93;;
53925;SDS011;39836;52.754;6.866;2022-09-09T03:19:03;9.77;;;6.10;;
53925;SDS011;39836;52.754;6.866;2022-09-09T03:21:29;6.78;;;3.53;;
53925;SDS011;39836;52.754;6.866;2022-09-09T03:23:55;8.23;;;3.30;;
53925;SDS011;39836;52.754;6.866;2022-09-09T03:26:20;8.23;;;3.20;;
53925;SDS011;39836;52.754;6.866;2022-09-09T03:28:46;6.75;;;2.50;;
53925;SDS011;39836;52.754;6.866;2022-09-09T03:31:12;3.65;;;1.83;;
53925;SDS011;39836;52.754;6.866;2022-09-09T03:33:38;3.53;;;1.75;;
53925;SDS011;39836;52.754;6.866;2022-09-09T03:36:06;8.43;;;2.30;;
53925;SDS011;39836;52.754;6.866;2022-09-09T03:38:33;8.20;;;3.13;;
53925;SDS011;39836;52.754;6.866;2022-09-09T03:40:59;10.02;;;5.10;;
53925;SDS011;39836;52.754;6.866;2022-09-09T03:43:27;10.95;;;5.35;;
53925;SDS011;39836;52.754;6.866;2022-09-09T03:45:53;11.65;;;6.25;;
53925;SDS011;39836;52.754;6.866;2022-09-09T03:48:22;17.95;;;8.70;;
53925;SDS011;39836;52.754;6.866;2022-09-09T03:50:48;15.15;;;9.88;;
53925;SDS011;39836;52.754;6.866;2022-09-09T03:53:16;19.42;;;11.93;;
53925;SDS011;39836;52.754;6.866;2022-09-09T03:55:48;22.27;;;12.70;;
53925;SDS011;39836;52.754;6.866;2022-09-09T03:58:17;22.20;;;13.63;;
53925;SDS011;39836;52.754;6.866;2022-09-09T04:00:44;20.17;;;14.15;;
53925;SDS011;39836;52.754;6.866;2022-09-09T04:03:21;19.05;;;14.20;;
53925;SDS011;39836;52.754;6.866;2022-09-09T04:05:49;26.58;;;15.07;;
53925;SDS011;39836;52.754;6.866;2022-09-09T04:08:19;29.75;;;15.20;;
53925;SDS011;39836;52.754;6.866;2022-09-09T04:10:46;23.35;;;15.75;;
53925;SDS011;39836;52.754;6.866;2022-09-09T04:13:15;21.70;;;14.52;;
53925;SDS011;39836;52.754;6.866;2022-09-09T04:15:43;20.17;;;14.32;;
53925;SDS011;39836;52.754;6.866;2022-09-09T04:18:10;20.73;;;14.30;;
53925;SDS011;39836;52.754;6.866;2022-09-09T04:20:37;23.60;;;15.40;;
53925;SDS011;39836;52.754;6.866;2022-09-09T04:23:03;24.60;;;16.25;;
53925;SDS011;39836;52.754;6.866;2022-09-09T04:25:29;25.23;;;14.48;;
53925;SDS011;39836;52.754;6.866;2022-09-09T04:27:58;24.15;;;14.88;;
53925;SDS011;39836;52.754;6.866;2022-09-09T04:30:24;20.27;;;14.18;;
53925;SDS011;39836;52.754;6.866;2022-09-09T04:32:50;23.65;;;14.55;;
53925;SDS011;39836;52.754;6.866;2022-09-09T04:35:16;19.75;;;14.85;;
53925;SDS011;39836;52.754;6.866;2022-09-09T04:37:42;23.45;;;15.48;;
53925;SDS011;39836;52.754;6.866;2022-09-09T04:40:09;19.30;;;13.90;;
53925;SDS011;39836;52.754;6.866;2022-09-09T04:42:38;19.05;;;14.00;;
53925;SDS011;39836;52.754;6.866;2022-09-09T04:45:05;21.42;;;14.82;;
53925;SDS011;39836;52.754;6.866;2022-09-09T04:47:32;21.67;;;14.73;;
53925;SDS011;39836;52.754;6.866;2022-09-09T04:49:57;23.38;;;13.13;;
53925;SDS011;39836;52.754;6.866;2022-09-09T04:52:24;25.45;;;13.35;;
53925;SDS011;39836;52.754;6.866;2022-09-09T04:54:49;18.50;;;12.70;;
53925;SDS011;39836;52.754;6.866;2022-09-09T04:57:15;18.48;;;12.82;;
53925;SDS011;39836;52.754;6.866;2022-09-09T04:59:41;16.73;;;11.82;;
53925;SDS011;39836;52.754;6.866;2022-09-09T05:02:06;20.80;;;11.95;;
53925;SDS011;39836;52.754;6.866;2022-09-09T05:04:32;19.88;;;12.85;;
53925;SDS011;39836;52.754;6.866;2022-09-09T05:06:58;16.48;;;11.45;;
53925;SDS011;39836;52.754;6.866;2022-09-09T05:09:24;15.63;;;10.93;;
53925;SDS011;39836;52.754;6.866;2022-09-09T05:11:50;18.23;;;11.32;;
53925;SDS011;39836;52.754;6.866;2022-09-09T05:14:16;16.48;;;10.18;;
53925;SDS011;39836;52.754;6.866;2022-09-09T05:16:44;16.88;;;10.63;;
53925;SDS011;39836;52.754;6.866;2022-09-09T05:19:10;14.60;;;10.13;;
53925;SDS011;39836;52.754;6.866;2022-09-09T05:21:36;15.18;;;11.25;;
53925;SDS011;39836;52.754;6.866;2022-09-09T05:24:02;15.65;;;11.57;;
53925;SDS011;39836;52.754;6.866;2022-09-09T05:26:28;14.60;;;10.77;;
53925;SDS011;39836;52.754;6.866;2022-09-09T05:28:57;21.20;;;12.30;;
53925;SDS011;39836;52.754;6.866;2022-09-09T05:31:25;17.33;;;12.35;;
53925;SDS011;39836;52.754;6.866;2022-09-09T05:33:52;17.15;;;12.65;;
53925;SDS011;39836;52.754;6.866;2022-09-09T05:36:19;20.40;;;13.23;;
53925;SDS011;39836;52.754;6.866;2022-09-09T05:38:46;19.67;;;14.15;;
53925;SDS011;39836;52.754;6.866;2022-09-09T05:41:12;15.23;;;11.82;;
53925;SDS011;39836;52.754;6.866;2022-09-09T05:43:40;17.60;;;12.80;;
53925;SDS011;39836;52.754;6.866;2022-09-09T05:46:18;19.13;;;12.80;;
53925;SDS011;39836;52.754;6.866;2022-09-09T05:48:46;23.27;;;13.77;;
53925;SDS011;39836;52.754;6.866;2022-09-09T05:51:15;17.13;;;12.77;;
53925;SDS011;39836;52.754;6.866;2022-09-09T05:53:43;17.75;;;12.80;;
53925;SDS011;39836;52.754;6.866;2022-09-09T05:56:10;18.67;;;12.52;;
53925;SDS011;39836;52.754;6.866;2022-09-09T05:58:40;18.42;;;12.20;;
53925;SDS011;39836;52.754;6.866;2022-09-09T06:01:28;13.30;;;11.38;;
53925;SDS011;39836;52.754;6.866;2022-09-09T06:03:58;18.23;;;12.20;;
53925;SDS011;39836;52.754;6.866;2022-09-09T06:06:25;18.17;;;11.73;;
53925;SDS011;39836;52.754;6.866;2022-09-09T06:08:53;17.23;;;11.70;;
53925;SDS011;39836;52.754;6.866;2022-09-09T06:11:29;16.98;;;12.15;;
53925;SDS011;39836;52.754;6.866;2022-09-09T06:14:01;17.42;;;11.48;;
53925;SDS011;39836;52.754;6.866;2022-09-09T06:16:28;20.30;;;11.95;;
53925;SDS011;39836;52.754;6.866;2022-09-09T06:18:54;18.98;;;12.02;;
53925;SDS011;39836;52.754;6.866;2022-09-09T06:23:48;18.25;;;11.95;;
53925;SDS011;39836;52.754;6.866;2022-09-09T06:26:19;21.38;;;13.23;;
53925;SDS011;39836;52.754;6.866;2022-09-09T06:28:45;18.27;;;11.57;;
53925;SDS011;39836;52.754;6.866;2022-09-09T06:31:13;17.05;;;12.00;;
53925;SDS011;39836;52.754;6.866;2022-09-09T06:33:42;18.92;;;12.25;;
53925;SDS011;39836;52.754;6.866;2022-09-09T06:36:28;17.02;;;12.27;;
53925;SDS011;39836;52.754;6.866;2022-09-09T06:38:58;16.00;;;11.65;;
53925;SDS011;39836;52.754;6.866;2022-09-09T06:41:25;15.73;;;11.63;;
53925;SDS011;39836;52.754;6.866;2022-09-09T06:43:52;18.17;;;11.63;;
53925;SDS011;39836;52.754;6.866;2022-09-09T06:46:28;20.98;;;12.48;;
53925;SDS011;39836;52.754;6.866;2022-09-09T06:48:56;19.10;;;13.23;;
53925;SDS011;39836;52.754;6.866;2022-09-09T06:51:25;19.10;;;11.88;;
53925;SDS011;39836;52.754;6.866;2022-09-09T06:54:00;14.65;;;11.45;;
53925;SDS011;39836;52.754;6.866;2022-09-09T06:56:32;17.50;;;13.07;;
53925;SDS011;39836;52.754;6.866;2022-09-09T06:59:00;16.33;;;12.55;;
53925;SDS011;39836;52.754;6.866;2022-09-09T07:01:29;18.13;;;12.40;;
53925;SDS011;39836;52.754;6.866;2022-09-09T07:03:57;15.57;;;11.50;;
53925;SDS011;39836;52.754;6.866;2022-09-09T07:06:45;15.65;;;10.70;;
53925;SDS011;39836;52.754;6.866;2022-09-09T07:09:12;19.08;;;11.30;;
53925;SDS011;39836;52.754;6.866;2022-09-09T07:11:47;17.33;;;10.52;;
53925;SDS011;39836;52.754;6.866;2022-09-09T07:14:14;20.67;;;11.38;;
53925;SDS011;39836;52.754;6.866;2022-09-09T07:16:43;16.60;;;11.25;;
53925;SDS011;39836;52.754;6.866;2022-09-09T07:19:10;19.20;;;11.80;;
53925;SDS011;39836;52.754;6.866;2022-09-09T07:21:36;16.52;;;10.73;;
53925;SDS011;39836;52.754;6.866;2022-09-09T07:24:02;17.55;;;11.27;;
53925;SDS011;39836;52.754;6.866;2022-09-09T07:26:30;17.65;;;11.63;;
53925;SDS011;39836;52.754;6.866;2022-09-09T07:28:56;16.38;;;11.23;;
53925;SDS011;39836;52.754;6.866;2022-09-09T07:31:26;14.43;;;9.23;;
53925;SDS011;39836;52.754;6.866;2022-09-09T07:33:55;16.38;;;10.63;;
53925;SDS011;39836;52.754;6.866;2022-09-09T07:36:22;12.80;;;10.02;;
53925;SDS011;39836;52.754;6.866;2022-09-09T07:38:54;19.77;;;11.50;;
53925;SDS011;39836;52.754;6.866;2022-09-09T07:41:23;15.45;;;11.90;;
53925;SDS011;39836;52.754;6.866;2022-09-09T07:43:51;15.27;;;12.13;;
53925;SDS011;39836;52.754;6.866;2022-09-09T07:46:19;17.90;;;10.70;;
53925;SDS011;39836;52.754;6.866;2022-09-09T07:48:55;15.40;;;12.15;;
53925;SDS011;39836;52.754;6.866;2022-09-09T07:53:52;15.07;;;10.50;;
53925;SDS011;39836;52.754;6.866;2022-09-09T07:56:19;12.30;;;10.15;;
53925;SDS011;39836;52.754;6.866;2022-09-09T07:58:48;17.80;;;10.25;;
53925;SDS011;39836;52.754;6.866;2022-09-09T08:01:16;16.75;;;10.30;;
53925;SDS011;39836;52.754;6.866;2022-09-09T08:03:47;19.10;;;11.00;;
53925;SDS011;39836;52.754;6.866;2022-09-09T08:06:24;17.10;;;10.45;;
53925;SDS011;39836;52.754;6.866;2022-09-09T08:08:51;18.10;;;8.70;;
53925;SDS011;39836;52.754;6.866;2022-09-09T08:11:18;19.70;;;10.52;;
53925;SDS011;39836;52.754;6.866;2022-09-09T08:13:44;13.35;;;8.52;;
53925;SDS011;39836;52.754;6.866;2022-09-09T08:16:12;16.85;;;9.10;;
53925;SDS011;39836;52.754;6.866;2022-09-09T08:18:40;14.95;;;8.15;;
53925;SDS011;39836;52.754;6.866;2022-09-09T08:21:10;14.23;;;8.32;;
53925;SDS011;39836;52.754;6.866;2022-09-09T08:23:38;14.75;;;8.70;;
53925;SDS011;39836;52.754;6.866;2022-09-09T08:26:12;15.07;;;8.30;;
53925;SDS011;39836;52.754;6.866;2022-09-09T08:28:40;11.60;;;7.35;;
53925;SDS011;39836;52.754;6.866;2022-09-09T08:31:07;15.05;;;6.68;;
53925;SDS011;39836;52.754;6.866;2022-09-09T08:33:32;15.57;;;5.95;;
53925;SDS011;39836;52.754;6.866;2022-09-09T08:35:58;11.20;;;6.47;;
53925;SDS011;39836;52.754;6.866;2022-09-09T08:38:24;13.73;;;6.03;;
53925;SDS011;39836;52.754;6.866;2022-09-09T08:40:50;12.00;;;5.40;;
53925;SDS011;39836;52.754;6.866;2022-09-09T08:43:19;13.88;;;5.30;;
53925;SDS011;39836;52.754;6.866;2022-09-09T08:48:33;11.57;;;5.70;;
53925;SDS011;39836;52.754;6.866;2022-09-09T08:51:13;13.38;;;6.15;;
53925;SDS011;39836;52.754;6.866;2022-09-09T08:53:43;16.45;;;6.18;;
53925;SDS011;39836;52.754;6.866;2022-09-09T08:56:14;14.13;;;5.00;;
53925;SDS011;39836;52.754;6.866;2022-09-09T08:58:46;12.77;;;5.45;;
53925;SDS011;39836;52.754;6.866;2022-09-09T09:01:29;13.00;;;5.30;;
53925;SDS011;39836;52.754;6.866;2022-09-09T09:07:15;13.95;;;5.00;;
53925;SDS011;39836;52.754;6.866;2022-09-09T09:13:15;11.55;;;5.10;;
53925;SDS011;39836;52.754;6.866;2022-09-09T09:15:42;9.95;;;4.60;;
53925;SDS011;39836;52.754;6.866;2022-09-09T09:18:13;11.15;;;4.50;;
53925;SDS011;39836;52.754;6.866;2022-09-09T09:23:24;13.30;;;4.40;;
53925;SDS011;39836;52.754;6.866;2022-09-09T09:25:56;12.50;;;4.63;;
53925;SDS011;39836;52.754;6.866;2022-09-09T09:28:27;20.58;;;6.57;;
53925;SDS011;39836;52.754;6.866;2022-09-09T09:36:09;11.95;;;4.00;;
53925;SDS011;39836;52.754;6.866;2022-09-09T09:38:35;12.23;;;4.32;;
53925;SDS011;39836;52.754;6.866;2022-09-09T09:41:02;11.93;;;3.75;;
53925;SDS011;39836;52.754;6.866;2022-09-09T09:43:35;8.30;;;3.38;;
53925;SDS011;39836;52.754;6.866;2022-09-09T09:46:03;10.55;;;3.45;;
53925;SDS011;39836;52.754;6.866;2022-09-09T09:48:29;12.43;;;3.97;;
53925;SDS011;39836;52.754;6.866;2022-09-09T09:53:26;12.15;;;3.22;;
53925;SDS011;39836;52.754;6.866;2022-09-09T09:55:56;14.68;;;3.50;;
53925;SDS011;39836;52.754;6.866;2022-09-09T10:01:05;8.18;;;2.90;;
53925;SDS011;39836;52.754;6.866;2022-09-09T10:03:32;17.05;;;2.90;;
53925;SDS011;39836;52.754;6.866;2022-09-09T10:06:02;13.95;;;2.65;;
53925;SDS011;39836;52.754;6.866;2022-09-09T10:08:33;9.80;;;2.65;;
53925;SDS011;39836;52.754;6.866;2022-09-09T10:16:48;11.70;;;3.22;;
53925;SDS011;39836;52.754;6.866;2022-09-09T10:19:37;9.98;;;2.63;;
53925;SDS011;39836;52.754;6.866;2022-09-09T10:30:21;9.10;;;2.83;;
53925;SDS011;39836;52.754;6.866;2022-09-09T10:41:16;11.10;;;2.87;;
53925;SDS011;39836;52.754;6.866;2022-09-09T10:44:05;11.98;;;2.40;;
53925;SDS011;39836;52.754;6.866;2022-09-09T10:46:56;10.77;;;2.80;;
53925;SDS011;39836;52.754;6.866;2022-09-09T10:55:16;12.13;;;2.13;;
53925;SDS011;39836;52.754;6.866;2022-09-09T10:57:45;10.10;;;2.28;;
53925;SDS011;39836;52.754;6.866;2022-09-09T11:00:18;11.50;;;2.20;;
53925;SDS011;39836;52.754;6.866;2022-09-09T11:02:48;7.53;;;1.73;;
53925;SDS011;39836;52.754;6.866;2022-09-09T11:08:04;9.52;;;1.88;;
53925;SDS011;39836;52.754;6.866;2022-09-09T11:13:22;7.75;;;2.00;;
53925;SDS011;39836;52.754;6.866;2022-09-09T11:15:52;10.15;;;1.90;;
53925;SDS011;39836;52.754;6.866;2022-09-09T11:18:25;10.95;;;2.05;;
53925;SDS011;39836;52.754;6.866;2022-09-09T11:20:59;5.68;;;1.85;;
53925;SDS011;39836;52.754;6.866;2022-09-09T11:23:41;6.35;;;1.90;;
53925;SDS011;39836;52.754;6.866;2022-09-09T11:26:12;9.55;;;1.92;;
53925;SDS011;39836;52.754;6.866;2022-09-09T11:44:47;8.93;;;1.92;;
53925;SDS011;39836;52.754;6.866;2022-09-09T11:47:19;8.60;;;1.90;;
53925;SDS011;39836;52.754;6.866;2022-09-09T11:49:51;10.18;;;2.05;;
53925;SDS011;39836;52.754;6.866;2022-09-09T11:52:34;9.27;;;1.90;;
53925;SDS011;39836;52.754;6.866;2022-09-09T11:55:08;7.53;;;1.95;;
53925;SDS011;39836;52.754;6.866;2022-09-09T11:57:37;7.15;;;1.52;;
53925;SDS011;39836;52.754;6.866;2022-09-09T12:00:04;11.23;;;2.15;;
53925;SDS011;39836;52.754;6.866;2022-09-09T12:02:31;11.35;;;2.20;;
53925;SDS011;39836;52.754;6.866;2022-09-09T12:05:12;6.18;;;1.60;;
53925;SDS011;39836;52.754;6.866;2022-09-09T12:07:41;4.60;;;1.33;;
53925;SDS011;39836;52.754;6.866;2022-09-09T12:10:25;7.40;;;1.58;;
53925;SDS011;39836;52.754;6.866;2022-09-09T12:12:54;13.20;;;1.88;;
53925;SDS011;39836;52.754;6.866;2022-09-09T12:15:21;6.57;;;1.73;;
53925;SDS011;39836;52.754;6.866;2022-09-09T12:17:51;8.63;;;1.60;;
53925;SDS011;39836;52.754;6.866;2022-09-09T12:23:22;5.18;;;1.40;;
53925;SDS011;39836;52.754;6.866;2022-09-09T12:26:14;8.82;;;1.58;;
53925;SDS011;39836;52.754;6.866;2022-09-09T12:31:33;9.65;;;1.83;;
53925;SDS011;39836;52.754;6.866;2022-09-09T12:34:10;7.15;;;1.63;;
53925;SDS011;39836;52.754;6.866;2022-09-09T12:36:42;7.75;;;1.60;;
53925;SDS011;39836;52.754;6.866;2022-09-09T12:39:27;9.02;;;1.70;;
53925;SDS011;39836;52.754;6.866;2022-09-09T12:41:59;7.70;;;1.73;;
53925;SDS011;39836;52.754;6.866;2022-09-09T12:44:25;7.60;;;2.13;;
53925;SDS011;39836;52.754;6.866;2022-09-09T12:46:54;7.40;;;1.75;;
53925;SDS011;39836;52.754;6.866;2022-09-09T12:49:31;9.70;;;2.00;;
53925;SDS011;39836;52.754;6.866;2022-09-09T12:52:06;9.35;;;2.03;;
53925;SDS011;39836;52.754;6.866;2022-09-09T12:54:38;9.13;;;1.88;;
53925;SDS011;39836;52.754;6.866;2022-09-09T12:57:12;5.68;;;1.40;;
53925;SDS011;39836;52.754;6.866;2022-09-09T12:59:40;7.43;;;1.60;;
53925;SDS011;39836;52.754;6.866;2022-09-09T13:04:46;6.47;;;1.40;;
53925;SDS011;39836;52.754;6.866;2022-09-09T13:07:13;6.38;;;1.50;;
53925;SDS011;39836;52.754;6.866;2022-09-09T13:09:41;7.53;;;1.77;;
53925;SDS011;39836;52.754;6.866;2022-09-09T13:12:09;6.47;;;1.58;;
53925;SDS011;39836;52.754;6.866;2022-09-09T13:14:53;12.07;;;2.30;;
53925;SDS011;39836;52.754;6.866;2022-09-09T13:17:23;26.58;;;3.47;;
53925;SDS011;39836;52.754;6.866;2022-09-09T13:19:51;14.73;;;3.50;;
53925;SDS011;39836;52.754;6.866;2022-09-09T13:24:58;14.38;;;3.20;;
53925;SDS011;39836;52.754;6.866;2022-09-09T13:30:25;11.05;;;2.67;;
53925;SDS011;39836;52.754;6.866;2022-09-09T13:32:59;8.18;;;3.13;;
53925;SDS011;39836;52.754;6.866;2022-09-09T13:36:07;7.47;;;2.42;;
53925;SDS011;39836;52.754;6.866;2022-09-09T13:38:36;9.43;;;2.47;;
53925;SDS011;39836;52.754;6.866;2022-09-09T13:41:22;6.32;;;2.03;;
53925;SDS011;39836;52.754;6.866;2022-09-09T13:43:50;6.30;;;1.70;;
53925;SDS011;39836;52.754;6.866;2022-09-09T13:51:40;8.27;;;1.70;;
53925;SDS011;39836;52.754;6.866;2022-09-09T13:54:09;6.93;;;1.60;;
53925;SDS011;39836;52.754;6.866;2022-09-09T13:56:37;6.20;;;1.73;;
53925;SDS011;39836;52.754;6.866;2022-09-09T13:59:05;7.43;;;1.67;;
53925;SDS011;39836;52.754;6.866;2022-09-09T14:01:34;7.30;;;1.90;;
53925;SDS011;39836;52.754;6.866;2022-09-09T14:04:00;7.20;;;1.80;;
53925;SDS011;39836;52.754;6.866;2022-09-09T14:06:26;4.30;;;1.10;;
53925;SDS011;39836;52.754;6.866;2022-09-09T14:08:52;5.75;;;1.20;;
53925;SDS011;39836;52.754;6.866;2022-09-09T14:11:19;5.97;;;1.50;;
53925;SDS011;39836;52.754;6.866;2022-09-09T14:13:46;6.40;;;1.20;;
53925;SDS011;39836;52.754;6.866;2022-09-09T14:16:15;3.78;;;1.17;;
53925;SDS011;39836;52.754;6.866;2022-09-09T14:18:42;8.98;;;0.90;;
53925;SDS011;39836;52.754;6.866;2022-09-09T14:21:09;4.45;;;1.02;;
53925;SDS011;39836;52.754;6.866;2022-09-09T14:23:36;2.95;;;0.93;;
53925;SDS011;39836;52.754;6.866;2022-09-09T14:26:03;1.55;;;0.90;;
53925;SDS011;39836;52.754;6.866;2022-09-09T14:28:30;6.63;;;1.60;;
53925;SDS011;39836;52.754;6.866;2022-09-09T14:30:58;4.03;;;1.38;;
53925;SDS011;39836;52.754;6.866;2022-09-09T14:33:31;8.20;;;2.08;;
53925;SDS011;39836;52.754;6.866;2022-09-09T14:35:57;2.88;;;1.17;;
53925;SDS011;39836;52.754;6.866;2022-09-09T14:38:24;2.85;;;1.10;;
53925;SDS011;39836;52.754;6.866;2022-09-09T14:40:53;3.58;;;1.40;;
53925;SDS011;39836;52.754;6.866;2022-09-09T14:43:19;5.90;;;1.75;;
53925;SDS011;39836;52.754;6.866;2022-09-09T14:45:45;6.00;;;1.60;;
53925;SDS011;39836;52.754;6.866;2022-09-09T14:48:13;3.47;;;1.60;;
53925;SDS011;39836;52.754;6.866;2022-09-09T14:50:40;4.25;;;1.85;;
53925;SDS011;39836;52.754;6.866;2022-09-09T14:53:06;5.47;;;1.92;;
53925;SDS011;39836;52.754;6.866;2022-09-09T14:55:33;6.85;;;1.70;;
53925;SDS011;39836;52.754;6.866;2022-09-09T14:57:59;4.97;;;1.98;;
53925;SDS011;39836;52.754;6.866;2022-09-09T15:00:25;6.38;;;2.30;;
53925;SDS011;39836;52.754;6.866;2022-09-09T15:02:54;8.73;;;2.30;;
53925;SDS011;39836;52.754;6.866;2022-09-09T15:05:21;5.90;;;1.95;;
53925;SDS011;39836;52.754;6.866;2022-09-09T15:07:47;7.30;;;1.95;;
53925;SDS011;39836;52.754;6.866;2022-09-09T15:10:15;4.68;;;2.10;;
53925;SDS011;39836;52.754;6.866;2022-09-09T15:12:42;3.47;;;1.75;;
53925;SDS011;39836;52.754;6.866;2022-09-09T15:15:08;8.00;;;2.20;;
53925;SDS011;39836;52.754;6.866;2022-09-09T15:17:35;5.13;;;2.20;;
53925;SDS011;39836;52.754;6.866;2022-09-09T15:20:04;5.97;;;2.08;;
53925;SDS011;39836;52.754;6.866;2022-09-09T15:22:31;4.85;;;2.00;;
53925;SDS011;39836;52.754;6.866;2022-09-09T15:24:56;5.47;;;2.20;;
53925;SDS011;39836;52.754;6.866;2022-09-09T15:27:22;5.75;;;1.75;;
53925;SDS011;39836;52.754;6.866;2022-09-09T15:29:48;5.13;;;1.73;;
53925;SDS011;39836;52.754;6.866;2022-09-09T15:32:16;6.47;;;2.25;;
53925;SDS011;39836;52.754;6.866;2022-09-09T15:34:41;4.88;;;2.03;;
53925;SDS011;39836;52.754;6.866;2022-09-09T15:37:09;6.05;;;2.08;;
53925;SDS011;39836;52.754;6.866;2022-09-09T15:39:36;8.40;;;2.42;;
53925;SDS011;39836;52.754;6.866;2022-09-09T15:42:01;9.38;;;2.35;;
53925;SDS011;39836;52.754;6.866;2022-09-09T15:44:27;3.40;;;1.92;;
53925;SDS011;39836;52.754;6.866;2022-09-09T15:46:53;5.80;;;2.10;;
53925;SDS011;39836;52.754;6.866;2022-09-09T15:49:25;6.88;;;2.33;;
53925;SDS011;39836;52.754;6.866;2022-09-09T15:51:54;9.80;;;2.22;;
53925;SDS011;39836;52.754;6.866;2022-09-09T15:54:22;4.85;;;1.95;;
53925;SDS011;39836;52.754;6.866;2022-09-09T15:56:55;5.93;;;2.08;;
53925;SDS011;39836;52.754;6.866;2022-09-09T15:59:22;8.60;;;2.20;;
53925;SDS011;39836;52.754;6.866;2022-09-09T16:01:49;8.15;;;2.17;;
53925;SDS011;39836;52.754;6.866;2022-09-09T16:04:17;7.18;;;2.22;;
53925;SDS011;39836;52.754;6.866;2022-09-09T16:06:51;7.00;;;2.00;;
53925;SDS011;39836;52.754;6.866;2022-09-09T16:09:23;8.55;;;2.25;;
53925;SDS011;39836;52.754;6.866;2022-09-09T16:11:49;6.03;;;2.10;;
53925;SDS011;39836;52.754;6.866;2022-09-09T16:14:16;6.93;;;2.22;;
53925;SDS011;39836;52.754;6.866;2022-09-09T16:16:42;4.45;;;2.03;;
53925;SDS011;39836;52.754;6.866;2022-09-09T16:19:09;8.25;;;2.25;;
53925;SDS011;39836;52.754;6.866;2022-09-09T16:21:38;7.85;;;1.92;;
53925;SDS011;39836;52.754;6.866;2022-09-09T16:24:06;9.02;;;2.15;;
53925;SDS011;39836;52.754;6.866;2022-09-09T16:26:35;5.95;;;2.75;;
53925;SDS011;39836;52.754;6.866;2022-09-09T16:29:03;5.45;;;1.92;;
53925;SDS011;39836;52.754;6.866;2022-09-09T16:31:29;5.82;;;2.28;;
53925;SDS011;39836;52.754;6.866;2022-09-09T16:33:59;5.82;;;2.00;;
53925;SDS011;39836;52.754;6.866;2022-09-09T16:36:25;6.65;;;2.13;;
53925;SDS011;39836;52.754;6.866;2022-09-09T16:39:00;7.15;;;1.90;;
53925;SDS011;39836;52.754;6.866;2022-09-09T16:41:30;6.50;;;2.00;;
53925;SDS011;39836;52.754;6.866;2022-09-09T16:43:57;5.45;;;2.15;;
53925;SDS011;39836;52.754;6.866;2022-09-09T16:46:28;6.05;;;2.03;;
53925;SDS011;39836;52.754;6.866;2022-09-09T16:48:56;5.80;;;2.08;;
53925;SDS011;39836;52.754;6.866;2022-09-09T16:51:27;5.07;;;2.05;;
53925;SDS011;39836;52.754;6.866;2022-09-09T16:53:54;4.95;;;1.75;;